AirNav   Duncan Aviation - Near you to keep you flying
 
 737 users online  

P91 Flying M Aerodrome
Germansville, Pennsylvania, USA

GOING TO GERMANSVILLE?


FAA INFORMATION EFFECTIVE 08 SEPTEMBER 2022

Location

FAA Identifier: P91
Lat/Long: 40-44-15.1100N 075-42-19.5000W
40-44.251833N 075-42.325000W
40.7375306,-75.7054167
(estimated)
Elevation: 735 ft. / 224 m (estimated)
Variation: 11W (1985)
From city: 2 miles N of GERMANSVILLE, PA
Time zone: UTC -4 (UTC -5 during Standard Time)
Zip code: 18053

Airport Operations

Airport use: Open to the public
Activation date: 01/1974
Control tower: no
ARTCC: NEW YORK CENTER
FSS: WILLIAMSPORT FLIGHT SERVICE STATION
NOTAMs facility: IPT (NOTAM-D service available)
Attendance: IREG
Wind indicator: yes
Segmented circle: no

Airport Communications

CTAF/UNICOM: 122.725
WX AWOS-3PT at 22N (5 nm NW): 119.350 (570-386-3423)
WX ASOS at ABE (13 nm SE): 126.975 (610-264-1765)
WX AWOS-3 at XLL (14 nm SE): 127.875 (610-231-3111)
WX AWOS-3 at HZL (20 nm NW): 119.975 (570-459-4901)

Nearby radio navigation aids

VOR radial/distance  VOR name  Freq  Var
ETXr003/9.4EAST TEXAS VOR/DME110.2009W
FJCr283/11.4ALLENTOWN VORTAC117.5010W
PTWr357/31.6POTTSTOWN VORTAC116.5009W
LVZr191/32.1WILKES-BARRE VORTAC111.6010W

Airport Services

Parking: hangars and tiedowns
Airframe service: MINOR
Powerplant service: MINOR

Runway Information

Runway 8/26

Dimensions: 2380 x 100 ft. / 725 x 30 m
Surface: turf, in good condition
Runway edge markings: RY 08 /26 MKD WITH WHITE CONES.
RUNWAY 8  RUNWAY 26
Latitude: 40-44.186667N40-44.317000N
Longitude: 075-42.568000W075-42.082000W
Elevation: 726.0 ft.735.0 ft.
Traffic pattern: leftleft
Displaced threshold: no300 ft.
DSPLCD THR MARKED WITH CONES & THREE LIGHTS EACH SIDE.
Touchdown point: yes, no lightsyes, no lights
Obstructions: none15 ft. road, 5 ft. from runway, 50 ft. both sides of centerline
RWY 26 APCH SLP 20:1 TO DTHR. ALSO 69 FT TREE 738 FT FM RWY END, RWY CNTRLN, 15:1 TO DTHR.

Airport Ownership and Management from official FAA records

Ownership: Privately-owned
Owner: LEHIGH LAND LEASING LTD
5363 MOUNTAIN RD, PO BOX 65
GERMANSVILLE, PA 18053
Phone 610-767-4133
Manager: PETER MANISCALCO
5363 MOUNTAIN RD, PO BOX 65
GERMANSVILLE, PA 18053-0065
Phone 610-248-8190

Airport Operational Statistics

Aircraft based on the field: 24
Single engine airplanes: 20
Multi engine airplanes: 1
Gliders airplanes: 2
Ultralights: 1
    
Aircraft operations: avg 24/day *
72% local general aviation
28% transient general aviation
<1% military
* for 12-month period ending 14 June 2022

Additional Remarks

FOR CD CTC ALLENTOWN APCH AT 800-728-6322.

Instrument Procedures

There are no published instrument procedures at P91.

Some nearby airports with instrument procedures:

22N - Jake Arner Memorial Airport (5 nm NW)
KABE - Lehigh Valley International Airport (13 nm SE)
KXLL - Allentown Queen City Municipal Airport (14 nm SE)
KHZL - Hazleton Regional Airport (20 nm NW)
N43 - Braden Airpark (21 nm E)
 
Loc | Ops | Rwys | IFR | FBO | Links
Com | Nav | Svcs | Stats | Notes
Area around P91 (Flying M Aerodrome)
 
Road maps at: MapQuest Bing Google
 
Aerial photo
No photo
 
Sectional chart

 
Airport distance calculator
Flying to Flying M Aerodrome? Find the distance to fly.

From to P91

Sunrise and sunset
Times for 04-Oct-2022
 Local
(UTC-4)
 Zulu
(UTC)
Morning civil twilight06:3610:36
Sunrise07:0311:03
Sunset18:4022:40
Evening civil twilight19:0723:07

Current date and time
Zulu (UTC)  04-Oct-2022 05:56:31
Local (UTC-4)  04-Oct-2022 01:56:31
 
METAR
K22N 
5nm NW 
040535Z AUTO 00000KT 10SM OVC075 07/06 A3017 RMK AO2
KABE 
13nm SE 
040451Z 34004KT 10SM OVC070 08/05 A3015 RMK AO2 RAE50 SLP212 P0002 T00780050 401060078
KXLL 
14nm SE 
040535Z AUTO 34004KT 10SM RA SCT035 SCT048 BKN070 08/06 A3015 RMK AO2 P0002
KHZL 
20nm NW 
040535Z AUTO 35003KT 10SM -DZ OVC070 07/03 A3018 RMK AO2
TAF
KABE 
13nm SE 
040017Z 0400/0424 04007KT P6SM VCSH SCT035 OVC070 FM040300 04006KT 6SM -RA BR SCT030 OVC060 FM041300 03010G20KT 4SM -RA BR SCT015 OVC030 FM041700 04011G21KT 3SM -RA BR SCT008 OVC015
NOTAMs
Click for the latest NOTAMs
NOTAMs are issued by the DoD/FAA and will open in a separate window not controlled by AirNav.

 

 
 

Would you like to see your business listed on this page?

 If your business provides an interesting product or service to pilots, flight crews, aircraft, or users of the Flying M Aerodrome, you should consider listing it here.  To start the listing process, click on the button below
 
Add a business
 

Other Pages about Flying M Aerodrome

Update a link
 
Copyright © AirNav, LLC. All rights reserved. Privacy Policy  Contact